Arbyrd, MO

12:32 PM CST on December 27, 2014 (GMT -0600)
East Linden Circle | Change Station
CLOSE
Current Station
Personal Weather Station
Location: Kennett, MO
Elevation: 262 ft
Nearby Weather Stations

Elev 262 ft 36.23 °N, 90.07 °W | Updated 2 minutes ago

Mostly Cloudy
Mostly Cloudy
50.9 °F
Feels Like 50.9 °F
N
0.0
Wind Variable Wind from SE
Gusts 0.0 mph

Today
High -- | Low -- °F
--% Chance of Precip.
Yesterday
High -- | Low -- °F
Precip. -- in
7:10 AM 4:53 PM
Waxing Crescent, 39% visible
Pressure 30.11 in
Visibility 2.5 miles
Clouds Overcast 1200 ft
Dew Point 50 °F
Humidity 97%
Rainfall 0.11 in
Snow Depth Not available.
UV 1 out of 12
Pollen .10 out of 12
Air Quality Not available.
Flu Activity Not available.
SPECI KHKA 271823Z AUTO 14003KT 2 1/2SM -RA BR OVC012 11/11 A3011 RMK AO2 RAE01B22 P0000 T01060106

More Conditions Fewer Conditions

Pressure 30.11 in
Visibility 2.5 miles
Clouds Overcast 1200 ft
Dew Point 50 °F
Humidity 97%
Rainfall 0.11 in
Snow Depth Not available.
UV 1 out of 12
Pollen .10 out of 12
Air Quality Not available.
Flu Activity Not available.
SPECI KHKA 271823Z AUTO 14003KT 2 1/2SM -RA BR OVC012 11/11 A3011 RMK AO2 RAE01B22 P0000 T01060106

More Conditions Fewer Conditions

10-Day Weather Forecast

Almanac

Astronomy

Dec. 27, 2014 Rise Set
Actual Time
Civil Twilight
Nautical Twilight
Astronomical Twilight
Moon
Length of Visible Light
Length of Day
Tomorrow will be .
, % of the Moon is Illuminated

Today's Extremes

State Highs State Lows

Community

WunderPhotos

Upload Photos

1,780,986 photos uploaded!

WunderBlogs® & News

Nearby

Air Quality

  Air Quality AQ Index Pollutant
Not available.

Snow Depth

Station Depth Elevation

Earthquake Activity

City Distance Mag. Time & Date
Minimum magnitude displayed is 2.5.

Coastal Water Temperatures

Place Temperature

Nearby Weather Stations